createdAt,value
2022-08-12T00:04:21.699Z,100714.66
2022-08-12T00:09:40.129Z,100715.06
2022-08-12T00:14:58.438Z,100719.41
2022-08-12T00:20:18.105Z,100723.56
2022-08-12T00:26:05.464Z,100721.94
2022-08-12T00:31:14.614Z,100725.44
2022-08-12T00:36:35.876Z,100725.09
2022-08-12T00:41:55.709Z,100725.38
2022-08-12T00:46:58.895Z,100732.06
2022-08-12T00:52:10.052Z,100734.69
2022-08-12T00:57:13.214Z,100732.44
2022-08-12T01:02:22.462Z,100727.00
2022-08-12T01:07:45.159Z,100725.97
2022-08-12T01:12:46.325Z,100725.44
2022-08-12T01:17:47.736Z,100725.69
2022-08-12T01:23:16.402Z,100725.69
2022-08-12T01:28:21.094Z,100730.78
2022-08-12T01:33:23.125Z,100730.41
2022-08-12T01:38:30.083Z,100720.94
2022-08-12T01:43:33.080Z,100714.06
2022-08-12T01:48:49.517Z,100715.50
2022-08-12T01:54:04.497Z,100711.91
2022-08-12T01:59:25.532Z,100708.03
2022-08-12T02:04:55.391Z,100716.97
2022-08-12T02:10:50.270Z,100708.88
2022-08-12T02:15:59.964Z,100704.03
2022-08-12T02:21:05.080Z,100707.59
2022-08-12T02:26:08.397Z,100696.47
2022-08-12T02:31:11.033Z,100687.25
2022-08-12T02:36:11.617Z,100684.63
2022-08-12T02:41:13.686Z,100671.84
2022-08-12T02:46:19.810Z,100678.88
2022-08-12T02:51:24.378Z,100665.28
2022-08-12T02:56:28.139Z,100668.34
2022-08-12T03:01:33.928Z,100664.94
2022-08-12T03:06:44.708Z,100677.94
2022-08-12T03:11:51.766Z,100692.94
2022-08-12T03:17:09.510Z,100700.50
2022-08-12T03:22:14.694Z,100700.50
2022-08-12T03:27:15.798Z,100709.28
2022-08-12T03:32:35.530Z,100705.31
2022-08-12T03:37:41.005Z,100715.28
2022-08-12T03:43:05.238Z,100701.72
2022-08-12T03:48:28.403Z,100708.75
2022-08-12T03:53:48.362Z,100700.53
2022-08-12T03:59:07.048Z,100714.34
2022-08-12T04:04:10.556Z,100709.97
2022-08-12T04:09:15.748Z,100722.78
2022-08-12T04:14:20.729Z,100723.47
2022-08-12T04:19:24.624Z,100730.09
2022-08-12T04:24:25.913Z,100724.78
2022-08-12T04:30:30.427Z,100735.13
2022-08-12T04:34:50.103Z,100719.50
2022-08-12T04:39:51.326Z,100728.28
2022-08-12T04:44:52.469Z,100725.88
2022-08-12T04:49:54.449Z,100732.66
2022-08-12T04:54:55.606Z,100730.00
2022-08-12T04:59:56.221Z,100727.44
2022-08-12T05:05:01.100Z,100724.03
2022-08-12T05:10:02.608Z,100733.31
2022-08-12T05:15:03.461Z,100721.06
2022-08-12T05:20:22.451Z,100731.91
2022-08-12T05:25:23.328Z,100728.19
2022-08-12T05:30:23.958Z,100739.16
2022-08-12T05:35:26.151Z,100735.31
2022-08-12T05:40:26.845Z,100730.88
2022-08-12T05:45:27.452Z,100733.97
2022-08-12T05:50:29.423Z,100742.53
2022-08-12T05:55:31.462Z,100748.09
2022-08-12T06:00:33.459Z,100745.13
2022-08-12T06:05:52.695Z,100750.81
2022-08-12T06:10:57.126Z,100745.28
2022-08-12T06:15:57.881Z,100750.78
2022-08-12T06:21:01.629Z,100758.00
2022-08-12T06:26:03.308Z,100765.00
2022-08-12T06:36:29.458Z,100766.13
2022-08-12T06:42:27.729Z,100761.91
2022-08-12T06:47:14.549Z,100754.19
2022-08-12T06:52:17.276Z,100762.28
2022-08-12T06:58:05.549Z,100756.34
2022-08-12T07:02:38.741Z,100753.66
2022-08-12T07:07:42.163Z,100757.25
2022-08-12T07:12:42.919Z,100750.41
2022-08-12T07:17:43.650Z,100756.00
2022-08-12T07:22:45.628Z,100754.94
2022-08-12T07:27:46.729Z,100758.78
2022-08-12T07:32:49.735Z,100772.16
2022-08-12T07:37:53.163Z,100769.59
2022-08-12T07:42:54.433Z,100774.53
2022-08-12T07:47:55.633Z,100770.47
2022-08-12T07:52:59.846Z,100768.19
2022-08-12T07:58:02.664Z,100766.16
2022-08-12T08:03:03.377Z,100756.25
2022-08-12T08:08:13.665Z,100749.19
2022-08-12T08:13:15.341Z,100751.34
2022-08-12T08:18:26.248Z,100760.53
2022-08-12T08:23:46.642Z,100749.75
2022-08-12T08:28:47.510Z,100749.84
2022-08-12T08:34:01.466Z,100735.97
2022-08-12T08:39:12.775Z,100726.25
2022-08-12T08:44:13.846Z,100725.56
2022-08-12T08:49:15.820Z,100723.88
2022-08-12T08:54:17.827Z,100717.72
2022-08-12T08:59:20.431Z,100706.25
2022-08-12T09:04:28.244Z,100707.34
2022-08-12T09:10:03.464Z,100702.00
2022-08-12T09:20:29.465Z,100692.00
2022-08-12T09:25:33.271Z,100684.78
2022-08-12T09:30:41.785Z,100688.97
2022-08-12T09:35:44.167Z,100692.22
2022-08-12T09:41:02.024Z,100701.97
2022-08-12T09:46:21.995Z,100672.06
2022-08-12T09:51:23.092Z,100671.78
2022-08-12T09:56:59.309Z,100671.25
2022-08-12T10:02:42.849Z,100673.44
2022-08-12T10:07:19.011Z,100673.06
2022-08-12T10:13:06.597Z,100662.41
2022-08-12T10:18:07.678Z,100668.03
2022-08-12T10:23:09.422Z,100659.81
2022-08-12T10:28:32.501Z,100658.66
2022-08-12T10:33:50.665Z,100638.66
2022-08-12T10:38:56.540Z,100621.00
2022-08-12T10:43:58.565Z,100631.72
2022-08-12T10:49:05.411Z,100623.31
2022-08-12T10:54:07.818Z,100622.25
2022-08-12T10:59:15.803Z,100625.38
2022-08-12T11:04:34.228Z,100621.84
2022-08-12T11:09:55.786Z,100613.09
2022-08-12T11:15:00.121Z,100606.88
2022-08-12T11:20:20.155Z,100606.94
2022-08-12T11:25:24.634Z,100597.38
2022-08-12T11:30:47.821Z,100594.41
2022-08-12T11:35:48.416Z,100583.75
2022-08-12T11:40:51.273Z,100585.81
2022-08-12T11:45:56.723Z,100584.47
2022-08-12T11:50:57.542Z,100576.69
2022-08-12T11:55:58.154Z,100573.06
2022-08-12T12:06:22.607Z,100560.81
2022-08-12T12:11:23.865Z,100573.81
2022-08-12T12:16:27.326Z,100569.97
2022-08-12T12:21:47.788Z,100555.84
2022-08-12T12:26:59.796Z,100552.47
2022-08-12T12:32:09.876Z,100543.75
2022-08-12T12:37:16.428Z,100532.66
2022-08-12T12:42:43.005Z,100537.84
2022-08-12T12:47:58.524Z,100541.31
2022-08-12T12:52:59.573Z,100531.44
2022-08-12T12:58:02.007Z,100527.31
2022-08-12T13:03:03.964Z,100528.00
2022-08-12T13:08:21.699Z,100521.16
2022-08-12T13:14:09.180Z,100515.47
2022-08-12T13:18:53.404Z,100511.66
2022-08-12T13:23:56.144Z,100497.88
2022-08-12T13:28:57.872Z,100499.56
2022-08-12T13:34:32.419Z,100497.22
2022-08-12T13:39:22.646Z,100477.19
2022-08-12T13:44:23.811Z,100482.16
2022-08-12T13:49:53.824Z,100475.41
2022-08-12T13:54:56.095Z,100472.25
2022-08-12T14:00:00.293Z,100462.66
2022-08-12T14:05:02.887Z,100467.19
2022-08-12T14:10:38.953Z,100466.69
2022-08-12T14:15:53.511Z,100459.59
2022-08-12T14:20:58.499Z,100436.75
2022-08-12T14:26:01.557Z,100434.81
2022-08-12T14:31:05.348Z,100440.34
2022-08-12T14:36:22.739Z,100445.34
2022-08-12T14:41:36.798Z,100424.59
2022-08-12T14:46:47.065Z,100430.09
2022-08-12T14:52:44.083Z,100434.47
2022-08-12T14:57:23.656Z,100424.06
2022-08-12T15:02:25.945Z,100431.06
2022-08-12T15:07:33.383Z,100423.72
2022-08-12T15:12:50.466Z,100406.72
2022-08-12T15:17:59.689Z,100409.25
2022-08-12T15:23:04.774Z,100399.66
2022-08-12T15:28:22.227Z,100410.00
2022-08-12T15:33:25.326Z,100398.97
2022-08-12T15:38:47.038Z,100399.34
2022-08-12T15:44:17.184Z,100406.72
2022-08-12T15:49:16.687Z,100400.94
2022-08-12T15:54:34.916Z,100406.91
2022-08-12T16:00:04.495Z,100400.00
2022-08-12T16:05:01.294Z,100394.75
2022-08-12T16:10:05.886Z,100398.38
2022-08-12T16:15:09.593Z,100387.75
2022-08-12T16:20:17.986Z,100387.19
2022-08-12T16:25:24.413Z,100384.31
2022-08-12T16:30:44.438Z,100390.88
2022-08-12T16:35:50.854Z,100386.44
2022-08-12T16:40:56.956Z,100386.66
2022-08-12T16:46:05.002Z,100385.56
2022-08-12T16:51:20.695Z,100374.09
2022-08-12T16:56:23.760Z,100373.66
2022-08-12T17:01:35.934Z,100371.44
2022-08-12T17:06:44.255Z,100370.91
2022-08-12T17:11:49.353Z,100373.06
2022-08-12T17:16:52.008Z,100359.22
2022-08-12T17:22:02.076Z,100357.94
2022-08-12T17:27:15.764Z,100348.53
2022-08-12T17:32:17.031Z,100346.50
2022-08-12T17:37:22.834Z,100350.38
2022-08-12T17:42:34.816Z,100351.69
2022-08-12T17:47:36.923Z,100360.16
2022-08-12T17:52:38.786Z,100365.88
2022-08-12T17:57:43.245Z,100374.91
2022-08-12T18:02:44.019Z,100378.34
2022-08-12T18:07:46.126Z,100371.66
2022-08-12T18:12:53.537Z,100382.84
2022-08-12T18:18:00.151Z,100380.34
2022-08-12T18:23:03.121Z,100394.22
2022-08-12T18:28:16.553Z,100399.06
2022-08-12T18:33:25.519Z,100407.81
2022-08-12T18:38:27.926Z,100402.66
2022-08-12T18:43:30.406Z,100407.91
2022-08-12T18:48:41.774Z,100408.63
2022-08-12T18:54:06.977Z,100410.88
2022-08-12T18:59:07.188Z,100415.97
2022-08-12T19:04:12.269Z,100429.88
2022-08-12T19:09:14.942Z,100422.34
2022-08-12T19:14:27.568Z,100423.41
2022-08-12T19:19:41.282Z,100423.41
2022-08-12T19:25:00.423Z,100432.53
2022-08-12T19:30:06.569Z,100433.53
2022-08-12T19:36:07.776Z,100430.78
2022-08-12T19:40:34.391Z,100429.25
2022-08-12T19:45:43.352Z,100423.53
2022-08-12T19:50:53.064Z,100427.97
2022-08-12T19:55:55.470Z,100425.34
2022-08-12T20:00:57.412Z,100428.28
2022-08-12T20:06:06.289Z,100426.53
2022-08-12T20:12:13.460Z,100434.44
2022-08-12T20:16:52.218Z,100437.25
2022-08-12T20:21:58.065Z,100424.94
2022-08-12T20:26:59.366Z,100437.50
2022-08-12T20:32:01.935Z,100437.03
2022-08-12T20:37:04.692Z,100433.66
2022-08-12T20:42:08.190Z,100436.78
2022-08-12T20:47:20.263Z,100435.28
2022-08-12T20:52:22.458Z,100433.81
2022-08-12T20:57:25.187Z,100439.06
2022-08-12T21:02:45.689Z,100439.75
2022-08-12T21:07:51.916Z,100440.22
2022-08-12T21:12:53.323Z,100430.56
2022-08-12T21:18:11.471Z,100440.72
2022-08-12T21:23:23.768Z,100445.59
2022-08-12T21:28:27.453Z,100439.22
2022-08-12T21:33:58.640Z,100446.16
2022-08-12T21:38:58.143Z,100444.56
2022-08-12T21:44:01.602Z,100448.72
2022-08-12T21:49:05.619Z,100451.13
2022-08-12T21:54:09.981Z,100444.03
2022-08-12T21:59:14.407Z,100446.34
2022-08-12T22:04:35.647Z,100444.69
2022-08-12T22:09:43.181Z,100461.03
2022-08-12T22:14:44.535Z,100456.50
2022-08-12T22:19:49.635Z,100458.41
2022-08-12T22:24:51.670Z,100469.25
2022-08-12T22:30:19.628Z,100471.84
2022-08-12T22:35:55.591Z,100463.19
2022-08-12T22:40:58.359Z,100471.66
2022-08-12T22:46:20.617Z,100469.66
2022-08-12T22:51:24.088Z,100467.59
2022-08-12T22:56:30.986Z,100469.88
2022-08-12T23:01:52.610Z,100473.75
2022-08-12T23:07:05.527Z,100464.06
2022-08-12T23:12:08.429Z,100464.53
2022-08-12T23:17:40.317Z,100464.28
2022-08-12T23:22:56.007Z,100460.91
2022-08-12T23:28:29.466Z,100458.16
2022-08-12T23:34:01.915Z,100453.09
2022-08-12T23:38:58.676Z,100457.84
2022-08-12T23:44:06.792Z,100457.88
2022-08-12T23:49:55.388Z,100455.53
2022-08-12T23:54:38.566Z,100448.16
2022-08-12T23:59:43.570Z,100448.13
